<?xml version="1.0" encoding="UTF-8" standalone="no" ?>
<gpx xmlns="http://www.topografix.com/GPX/1/1" xmlns:xsi="http://www.w3.org/2001/XMLSchema-instance" xsi:schemaLocation="http://www.topografix.com/GPX/1/1 http://www.topografix.com/GPX/1/1/gpx.xsd" version="1.1" creator="VisuGPX - https://www.visugpx.com">
  <metadata>
    <name>Etape 2 Férel - Les Moûtiers</name>
    <desc><![CDATA[Randonnée vélo Rennes - Hendaye, empruntant la Vélodyssée à partir de Saint-Brevin-Les-Pins. ]]></desc>
  </metadata>
  <trk>
    <name><![CDATA[Sequence 9]]></name>
    <trkseg>
      <trkpt lat="47.32555" lon="-2.16349">
        <ele>5</ele>
        <time>2016-07-22T06:13:51Z</time>
      </trkpt>
      <trkpt lat="47.3254" lon="-2.16363">
        <ele>5</ele>
        <time>2016-07-22T06:13:56Z</time>
      </trkpt>
      <trkpt lat="47.32523" lon="-2.16376">
        <ele>4</ele>
        <time>2016-07-22T06:14:01Z</time>
      </trkpt>
      <trkpt lat="47.32505" lon="-2.16387">
        <ele>5</ele>
        <time>2016-07-22T06:14:06Z</time>
      </trkpt>
      <trkpt lat="47.32487" lon="-2.16399">
        <ele>5</ele>
        <time>2016-07-22T06:14:11Z</time>
      </trkpt>
      <trkpt lat="47.32469" lon="-2.16411">
        <ele>4</ele>
        <time>2016-07-22T06:14:16Z</time>
      </trkpt>
      <trkpt lat="47.3245" lon="-2.16424">
        <ele>3</ele>
        <time>2016-07-22T06:14:22Z</time>
      </trkpt>
      <trkpt lat="47.32436" lon="-2.16434">
        <ele>2</ele>
        <time>2016-07-22T06:14:26Z</time>
      </trkpt>
      <trkpt lat="47.32433" lon="-2.16436">
        <ele>2</ele>
        <time>2016-07-22T06:14:31Z</time>
      </trkpt>
      <trkpt lat="47.32421" lon="-2.16444">
        <ele>3</ele>
        <time>2016-07-22T06:14:36Z</time>
      </trkpt>
      <trkpt lat="47.32401" lon="-2.16457">
        <ele>2</ele>
        <time>2016-07-22T06:14:41Z</time>
      </trkpt>
      <trkpt lat="47.32377" lon="-2.16471">
        <ele>7.8</ele>
        <time>2016-07-22T06:14:46Z</time>
      </trkpt>
      <trkpt lat="47.32351" lon="-2.16487">
        <ele>-1</ele>
        <time>2016-07-22T06:14:51Z</time>
      </trkpt>
      <trkpt lat="47.32327" lon="-2.16501">
        <ele>6.9</ele>
        <time>2016-07-22T06:14:56Z</time>
      </trkpt>
      <trkpt lat="47.32298" lon="-2.16513">
        <ele>-3</ele>
        <time>2016-07-22T06:15:01Z</time>
      </trkpt>
      <trkpt lat="47.32271" lon="-2.16537">
        <ele>-5</ele>
        <time>2016-07-22T06:15:06Z</time>
      </trkpt>
      <trkpt lat="47.32255" lon="-2.16574">
        <ele>-3</ele>
        <time>2016-07-22T06:15:11Z</time>
      </trkpt>
      <trkpt lat="47.32226" lon="-2.16582">
        <ele>-2</ele>
        <time>2016-07-22T06:15:16Z</time>
      </trkpt>
      <trkpt lat="47.322" lon="-2.16555">
        <ele>-2</ele>
        <time>2016-07-22T06:15:21Z</time>
      </trkpt>
      <trkpt lat="47.3219" lon="-2.16513">
        <ele>-2</ele>
        <time>2016-07-22T06:15:26Z</time>
      </trkpt>
      <trkpt lat="47.32166" lon="-2.16485">
        <ele>-2</ele>
        <time>2016-07-22T06:15:31Z</time>
      </trkpt>
      <trkpt lat="47.32144" lon="-2.16461">
        <ele>-1</ele>
        <time>2016-07-22T06:15:36Z</time>
      </trkpt>
      <trkpt lat="47.32123" lon="-2.16437">
        <ele>-1</ele>
        <time>2016-07-22T06:15:41Z</time>
      </trkpt>
      <trkpt lat="47.32104" lon="-2.16408">
        <ele>1</ele>
        <time>2016-07-22T06:15:46Z</time>
      </trkpt>
      <trkpt lat="47.32086" lon="-2.16386">
        <ele>3</ele>
        <time>2016-07-22T06:15:51Z</time>
      </trkpt>
      <trkpt lat="47.32071" lon="-2.16366">
        <ele>6</ele>
        <time>2016-07-22T06:15:56Z</time>
      </trkpt>
      <trkpt lat="47.32055" lon="-2.16349">
        <ele>4</ele>
        <time>2016-07-22T06:16:01Z</time>
      </trkpt>
      <trkpt lat="47.32033" lon="-2.16318">
        <ele>7</ele>
        <time>2016-07-22T06:16:09Z</time>
      </trkpt>
      <trkpt lat="47.32026" lon="-2.1631">
        <ele>6</ele>
        <time>2016-07-22T06:16:11Z</time>
      </trkpt>
      <trkpt lat="47.32008" lon="-2.16288">
        <ele>5</ele>
        <time>2016-07-22T06:16:16Z</time>
      </trkpt>
      <trkpt lat="47.31962" lon="-2.16248">
        <ele>6.8</ele>
        <time>2016-07-22T06:16:25Z</time>
      </trkpt>
      <trkpt lat="47.31955" lon="-2.16244">
        <ele>-1</ele>
        <time>2016-07-22T06:16:26Z</time>
      </trkpt>
      <trkpt lat="47.31919" lon="-2.16233">
        <ele>-2</ele>
        <time>2016-07-22T06:16:31Z</time>
      </trkpt>
      <trkpt lat="47.31863" lon="-2.1624">
        <ele>-4</ele>
        <time>2016-07-22T06:16:39Z</time>
      </trkpt>
      <trkpt lat="47.3185" lon="-2.16245">
        <ele>-4</ele>
        <time>2016-07-22T06:16:41Z</time>
      </trkpt>
      <trkpt lat="47.31828" lon="-2.16257">
        <ele>-4</ele>
        <time>2016-07-22T06:16:45Z</time>
      </trkpt>
      <trkpt lat="47.31812" lon="-2.16302">
        <ele>-6</ele>
        <time>2016-07-22T06:16:52Z</time>
      </trkpt>
      <trkpt lat="47.31805" lon="-2.16317">
        <ele>-5</ele>
        <time>2016-07-22T06:16:55Z</time>
      </trkpt>
      <trkpt lat="47.31787" lon="-2.16346">
        <ele>-6</ele>
        <time>2016-07-22T06:17:01Z</time>
      </trkpt>
      <trkpt lat="47.31783" lon="-2.16374">
        <ele>-7</ele>
        <time>2016-07-22T06:17:05Z</time>
      </trkpt>
      <trkpt lat="47.3178" lon="-2.16421">
        <ele>-8</ele>
        <time>2016-07-22T06:17:14Z</time>
      </trkpt>
      <trkpt lat="47.3178" lon="-2.16422">
        <ele>-9</ele>
        <time>2016-07-22T06:17:15Z</time>
      </trkpt>
      <trkpt lat="47.31779" lon="-2.16422">
        <ele>-7</ele>
        <time>2016-07-22T06:17:20Z</time>
      </trkpt>
      <trkpt lat="47.31779" lon="-2.16418">
        <ele>-6</ele>
        <time>2016-07-22T06:17:25Z</time>
      </trkpt>
      <trkpt lat="47.3178" lon="-2.16418">
        <ele>-6</ele>
        <time>2016-07-22T06:17:30Z</time>
      </trkpt>
      <trkpt lat="47.3178" lon="-2.16417">
        <ele>-6</ele>
        <time>2016-07-22T06:17:35Z</time>
      </trkpt>
    </trkseg>
  </trk>
</gpx>